Time;durP1;ratioP1;P1;durP2;ratioP2;P2;SDS_P1;SDS_P2;PMS_P1;PMS_P2;Temp;Humidity;BMP_temperature;BMP_pressure;BME280_temperature;BME280_humidity;BME280_pressure;Samples;Min_cycle;Max_cycle;Signal;HPM_P1;HPM_P2
2021/10/26 00:01:31;;;;;;;1999.90;999.90;;;;;;;8.55;73.63;101359.25;15610424;28;20137;-58
2021/10/26 00:09:06;;;;;;;1999.90;999.90;;;;;;;8.67;73.64;101361.56;15610770;28;20053;-54
2021/10/26 00:16:39;;;;;;;1999.90;999.90;;;;;;;8.80;73.61;101369.09;15612946;28;20045;-58
2021/10/26 00:24:13;;;;;;;1999.90;999.90;;;;;;;8.94;73.14;101371.91;15605693;28;20468;-61
2021/10/26 00:31:46;;;;;;;1999.90;999.90;;;;;;;8.93;73.46;101348.00;15624426;28;20532;-61
2021/10/26 00:39:20;;;;;;;1999.90;999.90;;;;;;;8.97;73.55;101354.63;15622120;28;20092;-61
2021/10/26 00:46:53;;;;;;;1999.90;999.90;;;;;;;9.02;73.17;101351.72;15620723;28;20049;-61
2021/10/26 00:54:27;;;;;;;1999.90;999.90;;;;;;;9.05;73.00;101350.28;15620306;28;20033;-59
2021/10/26 01:02:05;;;;;;;1999.90;999.90;;;;;;;8.83;73.15;101342.63;15619501;28;20045;-60
2021/10/26 01:09:39;;;;;;;1999.90;999.90;;;;;;;8.28;75.23;101334.91;15619846;28;20110;-59
2021/10/26 01:17:13;;;;;;;1999.90;999.90;;;;;;;8.59;73.61;101351.94;15619234;28;20050;-62
2021/10/26 01:24:48;;;;;;;1999.90;999.90;;;;;;;8.73;73.17;101356.72;15618587;28;20037;-61
2021/10/26 01:32:21;;;;;;;1999.90;999.90;;;;;;;8.73;73.07;101354.75;15601748;28;20124;-59
2021/10/26 01:40:04;;;;;;;1999.90;999.90;;;;;;;8.89;72.58;101352.53;15617349;28;20045;-61
2021/10/26 01:47:38;;;;;;;1999.90;999.90;;;;;;;8.78;72.45;101345.50;15616504;28;20051;-60
2021/10/26 01:55:18;;;;;;;1999.90;999.90;;;;;;;8.72;72.39;101338.38;15615962;28;20159;-58
2021/10/26 02:02:54;;;;;;;1999.90;999.90;;;;;;;8.56;72.76;101338.66;15599221;28;20057;-59
2021/10/26 02:10:28;;;;;;;1999.90;999.90;;;;;;;8.35;73.23;101346.50;15615907;28;20042;-61
2021/10/26 02:18:01;;;;;;;1999.90;999.90;;;;;;;8.50;71.65;101352.94;15615145;28;20408;-57
2021/10/26 02:25:35;;;;;;;1999.90;999.90;;;;;;;8.21;72.62;101344.75;15614692;28;20079;-57
2021/10/26 02:33:08;;;;;;;1999.90;999.90;;;;;;;8.15;73.06;101345.97;15613921;28;20050;-59
2021/10/26 02:40:42;;;;;;;1999.90;999.90;;;;;;;8.05;73.82;101344.16;15612311;28;20046;-58
2021/10/26 02:48:14;;;;;;;1999.90;999.90;;;;;;;8.22;73.30;101346.41;15612956;28;20434;-58
2021/10/26 02:55:51;;;;;;;1999.90;999.90;;;;;;;8.28;73.03;101342.41;15612906;28;20042;-58
2021/10/26 03:03:24;;;;;;;1999.90;999.90;;;;;;;8.18;72.91;101345.34;15612582;28;20052;-61
2021/10/26 03:10:58;;;;;;;1999.90;999.90;;;;;;;8.18;73.70;101329.50;15612208;28;20128;-58
2021/10/26 03:18:31;;;;;;;1999.90;999.90;;;;;;;8.50;73.14;101325.94;15611298;28;20042;-60
2021/10/26 03:26:05;;;;;;;1999.90;999.90;;;;;;;8.49;73.64;101340.16;15611872;28;20387;-57
2021/10/26 03:33:39;;;;;;;1999.90;999.90;;;;;;;8.47;73.11;101346.03;15610738;28;20334;-61
2021/10/26 03:41:16;;;;;;;1999.90;999.90;;;;;;;8.42;73.20;101342.50;15610806;28;20049;-55
2021/10/26 03:48:49;;;;;;;1999.90;999.90;;;;;;;8.71;73.18;101336.72;15610794;28;20041;-59
2021/10/26 03:56:23;;;;;;;1999.90;999.90;;;;;;;8.76;73.41;101345.00;15610008;28;20513;-60
2021/10/26 04:03:57;;;;;;;1999.90;999.90;;;;;;;8.95;72.87;101345.72;15610748;28;20049;-62
2021/10/26 04:11:39;;;;;;;1999.90;999.90;;;;;;;8.79;73.79;101355.50;15609807;28;20500;-61
2021/10/26 04:19:12;;;;;;;1999.90;999.90;;;;;;;9.06;73.08;101354.72;15703773;22;20056;-60
2021/10/26 04:26:50;;;;;;;1999.90;999.90;;;;;;;9.01;73.19;101361.22;15738372;28;20063;-58
2021/10/26 04:34:23;;;;;;;1999.90;999.90;;;;;;;9.17;72.78;101347.81;15741290;28;20381;-61
2021/10/26 04:41:58;;;;;;;1999.90;999.90;;;;;;;9.30;73.00;101352.59;15741009;28;20051;-58
2021/10/26 04:49:33;;;;;;;1999.90;999.90;;;;;;;9.45;72.67;101357.00;15737971;28;20029;-56
2021/10/26 04:57:08;;;;;;;1999.90;999.90;;;;;;;9.47;72.21;101361.13;15739497;28;20516;-59
2021/10/26 05:04:41;;;;;;;1999.90;999.90;;;;;;;9.59;72.48;101365.34;15741722;28;20036;-62
2021/10/26 05:12:15;;;;;;;1999.90;999.90;;;;;;;9.73;72.23;101368.97;15747753;28;20072;-58
2021/10/26 05:19:50;;;;;;;1999.90;999.90;;;;;;;9.74;72.55;101376.19;15747272;28;20127;-59
2021/10/26 05:27:44;;;;;;;1999.90;999.90;;;;;;;9.89;72.42;101378.63;15747841;28;20504;-62
2021/10/26 05:35:17;;;;;;;1999.90;999.90;;;;;;;9.86;72.80;101375.66;15726453;28;20040;-61
2021/10/26 05:42:54;;;;;;;1999.90;999.90;;;;;;;9.90;72.62;101385.88;15683954;28;20047;-63
2021/10/26 05:50:27;;;;;;;1999.90;999.90;;;;;;;9.96;72.77;101392.16;15685598;28;20110;-60
2021/10/26 05:58:01;;;;;;;1999.90;999.90;;;;;;;10.13;72.60;101393.16;15666759;28;20164;-60
2021/10/26 06:05:33;;;;;;;1999.90;999.90;;;;;;;10.33;72.44;101396.66;15683084;28;20068;-59
2021/10/26 06:13:10;;;;;;;1999.90;999.90;;;;;;;10.37;72.70;101420.81;15682063;28;20045;-59
2021/10/26 06:20:43;;;;;;;1999.90;999.90;;;;;;;10.45;73.01;101407.25;15681910;28;20052;-58
2021/10/26 06:28:19;;;;;;;1999.90;999.90;;;;;;;10.56;72.67;101428.19;15681403;28;20486;-59
2021/10/26 06:35:52;;;;;;;1999.90;999.90;;;;;;;10.62;72.31;101426.91;15690176;28;20461;-57
2021/10/26 06:43:28;;;;;;;1999.90;999.90;;;;;;;10.78;72.38;101452.50;15742526;28;20040;-60
2021/10/26 06:51:20;;;;;;;1999.90;999.90;;;;;;;10.77;72.73;101454.47;15743572;28;20036;-60
2021/10/26 06:59:12;;;;;;;1999.90;999.90;;;;;;;10.99;72.51;101468.44;15743214;28;20114;-56
2021/10/26 07:07:05;;;;;;;1999.90;999.90;;;;;;;11.25;72.60;101464.97;15733201;28;20067;-56
2021/10/26 07:14:49;;;;;;;1999.90;999.90;;;;;;;11.42;72.44;101478.22;15740649;28;20515;-59
2021/10/26 07:22:22;;;;;;;1999.90;999.90;;;;;;;11.50;72.37;101478.28;15741780;28;20040;-61
2021/10/26 07:30:12;;;;;;;1999.90;999.90;;;;;;;11.61;72.63;101476.03;15743926;28;20060;-61
2021/10/26 07:37:46;;;;;;;1999.90;999.90;;;;;;;11.87;72.37;101481.75;15715479;28;20041;-60
2021/10/26 07:45:29;;;;;;;1999.90;999.90;;;;;;;12.06;71.61;101489.88;15677042;28;20045;-63
2021/10/26 07:53:02;;;;;;;1999.90;999.90;;;;;;;12.19;71.81;101496.50;15676763;28;20397;-61
2021/10/26 08:00:45;;;;;;;1999.90;999.90;;;;;;;12.50;71.43;101486.00;15660014;28;20056;-62
2021/10/26 08:08:47;;;;;;;;;;;;;;;12.85;70.69;101491.66;15677944;28;20040;-59
2021/10/26 08:16:21;;;;;;;1999.90;999.90;;;;;;;13.07;70.34;101490.66;15675902;28;19931;-61
2021/10/26 08:23:56;;;;;;;1999.90;999.90;;;;;;;13.28;69.18;101486.03;15675943;28;20037;-59
2021/10/26 08:31:39;;;;;;;1999.90;999.90;;;;;;;13.29;69.88;101496.91;15676134;28;20049;-62
2021/10/26 08:39:14;;;;;;;1999.90;999.90;;;;;;;13.48;70.15;101488.13;15717302;28;20040;-60
2021/10/26 08:46:53;;;;;;;1999.90;999.90;;;;;;;13.54;69.85;101508.38;15732971;28;20068;-62
2021/10/26 08:54:28;;;;;;;1999.90;999.90;;;;;;;13.51;70.39;101500.66;15732143;28;20059;-59
2021/10/26 09:02:41;;;;;;;1999.90;999.90;;;;;;;13.56;70.20;101498.50;15748116;28;20506;-57
2021/10/26 09:10:16;;;;;;;1999.90;999.90;;;;;;;13.72;70.04;101501.56;15749159;28;20548;-59
2021/10/26 09:18:28;;;;;;;1999.90;999.90;;;;;;;14.31;68.89;101514.84;15746859;28;20049;-59
2021/10/26 09:26:06;;;;;;;1999.90;999.90;;;;;;;14.76;67.63;101522.66;15747094;28;20101;-59
2021/10/26 09:33:42;;;;;;;1999.90;999.90;;;;;;;14.59;67.75;101517.97;15748254;28;20044;-59
2021/10/26 09:41:14;;;;;;;1999.90;999.90;;;;;;;14.52;67.77;101532.59;15694079;28;20049;-57
2021/10/26 09:48:48;;;;;;;1999.90;999.90;;;;;;;14.36;68.47;101523.88;15684870;28;20424;-60
2021/10/26 09:56:21;;;;;;;1999.90;999.90;;;;;;;14.89;66.38;101519.56;15684087;28;20456;-59
2021/10/26 10:04:06;;;;;;;1999.90;999.90;;;;;;;15.57;64.98;101533.34;15683318;28;20482;-60
2021/10/26 10:12:01;;;;;;;1999.90;999.90;;;;;;;15.77;64.13;101531.66;15683941;28;20049;-60
2021/10/26 10:19:36;;;;;;;1999.90;999.90;;;;;;;15.51;65.19;101523.47;15686868;28;20049;-60
2021/10/26 10:27:12;;;;;;;1999.90;999.90;;;;;;;15.68;64.09;101522.50;15684951;28;20045;-60
2021/10/26 10:34:46;;;;;;;1999.90;999.90;;;;;;;15.54;65.37;101523.63;15682068;28;20057;-59
2021/10/26 10:42:23;;;;;;;1999.90;999.90;;;;;;;15.70;64.90;101532.22;15681618;28;20045;-60
2021/10/26 10:50:00;;;;;;;1999.90;999.90;;;;;;;16.66;62.89;101517.69;15681723;28;20444;-61
2021/10/26 10:57:35;;;;;;;1999.90;999.90;;;;;;;18.04;58.79;101525.72;15681245;28;20064;-62
2021/10/26 11:05:40;;;;;;;1999.90;999.90;;;;;;;17.40;60.16;101521.13;15678744;28;20124;-60
2021/10/26 11:13:17;;;;;;;1999.90;999.90;;;;;;;17.39;59.82;101513.84;15680252;28;20045;-59
2021/10/26 11:20:52;;;;;;;1999.90;999.90;;;;;;;17.01;61.06;101524.47;15680221;28;20053;-59
2021/10/26 11:28:42;;;;;;;1999.90;999.90;;;;;;;17.12;61.24;101510.69;15679139;28;20049;-61
2021/10/26 11:36:17;;;;;;;1999.90;999.90;;;;;;;17.64;59.92;101512.53;15689773;28;20071;-59
2021/10/26 11:43:54;;;;;;;1999.90;999.90;;;;;;;18.58;57.31;101511.69;15740518;28;20127;-59
2021/10/26 11:51:29;;;;;;;1999.90;999.90;;;;;;;17.16;60.14;101505.97;15722812;28;20489;-58
2021/10/26 11:59:05;;;;;;;1999.90;999.90;;;;;;;16.79;61.50;101508.09;15739173;28;20047;-59
2021/10/26 12:06:42;;;;;;;1999.90;999.90;;;;;;;16.52;61.25;101512.44;15738331;28;20575;-60
2021/10/26 12:14:20;;;;;;;1999.90;999.90;;;;;;;16.76;61.78;101510.78;15737501;28;20123;-61
2021/10/26 12:21:54;;;;;;;1999.90;999.90;;;;;;;16.14;62.51;101507.19;15739459;28;20051;-61
2021/10/26 12:29:30;;;;;;;1999.90;999.90;;;;;;;16.50;61.97;101517.63;15739031;28;20120;-63
2021/10/26 12:37:35;;;;;;;1999.90;999.90;;;;;;;16.84;60.71;101515.47;15739235;28;20044;-61
2021/10/26 12:45:11;;;;;;;1999.90;999.90;;;;;;;16.96;60.89;101519.06;15669465;28;20045;-64
2021/10/26 12:52:45;;;;;;;1999.90;999.90;;;;;;;17.10;59.95;101513.03;15738794;28;20048;-61
2021/10/26 13:00:22;;;;;;;1999.90;999.90;;;;;;;21.02;48.71;101510.13;15737370;28;20040;-61
2021/10/26 13:08:03;;;;;;;1999.90;999.90;;;;;;;25.68;40.34;101511.03;15737585;28;20041;-60
2021/10/26 13:15:38;;;;;;;1999.90;999.90;;;;;;;25.00;40.23;101510.53;15737377;28;20163;-59
2021/10/26 13:23:14;;;;;;;1999.90;999.90;;;;;;;18.46;54.61;101490.03;15738333;28;20040;-60
2021/10/26 13:30:50;;;;;;;1999.90;999.90;;;;;;;17.66;56.71;101493.25;15747149;28;20354;-58
2021/10/26 13:38:25;;;;;;;1999.90;999.90;;;;;;;18.03;57.27;101495.81;15718907;28;20045;-60
2021/10/26 13:46:00;;;;;;;1999.90;999.90;;;;;;;16.89;59.44;101506.78;15686493;28;20052;-61
2021/10/26 13:53:34;;;;;;;1999.90;999.90;;;;;;;16.95;59.15;101516.59;15684990;28;20073;-61
2021/10/26 14:01:12;;;;;;;1999.90;999.90;;;;;;;16.83;59.48;101511.84;15686341;28;20045;-60
2021/10/26 14:08:47;;;;;;;1999.90;999.90;;;;;;;17.00;59.29;101514.38;15683452;28;20037;-60
2021/10/26 14:16:19;;;;;;;1999.90;999.90;;;;;;;16.88;60.02;101524.84;15684647;28;20128;-57
2021/10/26 14:23:53;;;;;;;1999.90;999.90;;;;;;;16.79;60.29;101532.63;15683730;28;20072;-60
2021/10/26 14:31:28;;;;;;;1999.90;999.90;;;;;;;16.85;60.44;101534.84;15683405;28;20098;-60
2021/10/26 14:39:08;;;;;;;1999.90;999.90;;;;;;;16.75;60.85;101543.78;15715867;28;20049;-60
2021/10/26 14:54:38;;;;;;;1999.90;999.90;;;;;;;16.68;61.28;101537.94;15742832;28;20070;-60
2021/10/26 15:02:11;;;;;;;1999.90;999.90;;;;;;;16.74;61.35;101556.22;15744317;28;20398;-60
2021/10/26 15:09:48;;;;;;;;;;;;;;;16.68;62.06;101560.50;15724889;28;20398;-60
2021/10/26 15:17:20;;;;;;;1999.90;999.90;;;;;;;16.42;62.33;101553.19;15741839;28;19920;-60
2021/10/26 15:40:36;;;;;;;1999.90;999.90;;;;;;;16.03;63.20;101573.56;15693216;28;20471;-60
2021/10/26 15:48:09;;;;;;;1999.90;999.90;;;;;;;15.71;64.60;101567.63;15678590;28;20093;-61
2021/10/26 15:55:45;;;;;;;1999.90;999.90;;;;;;;15.50;65.37;101573.28;15678364;28;20051;-61
2021/10/26 16:03:17;;;;;;;1999.90;999.90;;;;;;;15.29;66.17;101590.19;15678846;28;20478;-60
2021/10/26 16:10:56;;;;;;;1999.90;999.90;;;;;;;15.16;66.93;101596.09;15678367;28;20494;-60
2021/10/26 16:18:30;;;;;;;1999.90;999.90;;;;;;;14.93;67.53;101610.47;15678088;28;20051;-61
2021/10/26 16:26:06;;;;;;;1999.90;999.90;;;;;;;14.88;67.81;101613.47;15677044;28;20055;-61
2021/10/26 16:33:46;;;;;;;1999.90;999.90;;;;;;;14.71;68.36;101606.00;15676518;28;20137;-62
2021/10/26 16:41:20;;;;;;;1999.90;999.90;;;;;;;14.61;68.52;101628.03;15731246;28;20041;-61
2021/10/26 16:48:54;;;;;;;1999.90;999.90;;;;;;;14.38;68.74;101631.09;15737629;28;20565;-61
2021/10/26 16:56:28;;;;;;;1999.90;999.90;;;;;;;14.22;69.27;101644.03;15739114;28;20421;-61
2021/10/26 17:04:01;;;;;;;1999.90;999.90;;;;;;;14.03;69.72;101635.97;15748210;28;20516;-59
2021/10/26 17:11:35;;;;;;;1999.90;999.90;;;;;;;14.11;69.91;101646.38;15749762;28;20239;-61
2021/10/26 17:19:08;;;;;;;1999.90;999.90;;;;;;;14.14;69.71;101661.72;15749757;28;20052;-61
2021/10/26 17:26:42;;;;;;;1999.90;999.90;;;;;;;14.22;69.61;101660.88;15750002;28;20098;-61
2021/10/26 17:34:15;;;;;;;1999.90;999.90;;;;;;;14.31;68.98;101669.25;15749240;28;20095;-61
2021/10/26 17:41:49;;;;;;;1999.90;999.90;;;;;;;14.18;69.17;101664.69;15691242;28;20095;-61
2021/10/26 17:49:22;;;;;;;1999.90;999.90;;;;;;;13.98;69.75;101683.88;15686598;28;20056;-60
2021/10/26 17:56:56;;;;;;;1999.90;999.90;;;;;;;14.04;69.13;101690.94;15688468;28;20490;-61
2021/10/26 18:04:29;;;;;;;1999.90;999.90;;;;;;;14.08;68.46;101693.94;15688467;28;20512;-61
2021/10/26 18:12:05;;;;;;;1999.90;999.90;;;;;;;14.10;67.99;101683.19;15682889;28;20056;-60
2021/10/26 18:19:39;;;;;;;1999.90;999.90;;;;;;;13.97;68.16;101689.81;15684108;28;20053;-61
2021/10/26 18:27:13;;;;;;;1999.90;999.90;;;;;;;13.80;68.36;101674.66;15684326;28;20091;-61
2021/10/26 18:34:46;;;;;;;1999.90;999.90;;;;;;;13.80;68.39;101685.03;15683512;28;20167;-61
2021/10/26 18:42:28;;;;;;;1999.90;999.90;;;;;;;13.71;68.36;101682.25;15681451;28;20049;-61
2021/10/26 18:50:01;;;;;;;1999.90;999.90;;;;;;;13.76;67.47;101690.50;15682854;28;20053;-60
2021/10/26 18:57:34;;;;;;;1999.90;999.90;;;;;;;13.57;67.62;101688.03;15680125;28;20526;-60
2021/10/26 19:05:08;;;;;;;1999.90;999.90;;;;;;;13.24;68.25;101689.66;15681474;28;20049;-60
2021/10/26 19:12:42;;;;;;;;;;;;;;;13.29;67.80;101687.50;15681103;28;20045;-61
2021/10/26 19:20:15;;;;;;;1999.90;999.90;;;;;;;12.99;68.79;101696.81;15679891;28;20020;-62
2021/10/26 19:27:53;;;;;;;1999.90;999.90;;;;;;;13.03;68.75;101685.81;15680320;28;20045;-61
2021/10/26 19:35:27;;;;;;;1999.90;999.90;;;;;;;13.16;67.93;101698.84;15688246;28;20047;-60
2021/10/26 19:43:02;;;;;;;;;;;;;;;13.21;67.91;101704.31;15741499;28;20462;-61
2021/10/26 19:50:34;;;;;;;1999.90;999.90;;;;;;;12.98;68.59;101706.38;15740138;28;19966;-61
2021/10/26 19:58:09;;;;;;;1999.90;999.90;;;;;;;13.04;68.73;101702.28;15739134;28;20543;-61
2021/10/26 20:05:42;;;;;;;1999.90;999.90;;;;;;;12.93;68.47;101712.97;15740001;28;20045;-61
2021/10/26 20:13:17;;;;;;;1999.90;999.90;;;;;;;12.85;68.84;101715.75;15740016;28;20503;-58
2021/10/26 20:20:57;;;;;;;1999.90;999.90;;;;;;;12.94;68.85;101730.59;15740693;28;20050;-59
2021/10/26 20:28:33;;;;;;;1999.90;999.90;;;;;;;13.04;68.40;101743.50;15739403;28;20116;-57
2021/10/26 20:36:06;;;;;;;1999.90;999.90;;;;;;;12.91;68.88;101739.63;15736169;28;20048;-59
2021/10/26 20:43:40;;;;;;;1999.90;999.90;;;;;;;13.05;68.95;101734.75;15690780;28;20053;-59
2021/10/26 20:51:16;;;;;;;1999.90;999.90;;;;;;;13.07;68.53;101720.41;15687528;28;20636;-59
2021/10/26 20:58:49;;;;;;;1999.90;999.90;;;;;;;12.97;69.00;101732.75;15687440;28;20036;-61
2021/10/26 21:06:22;;;;;;;1999.90;999.90;;;;;;;13.05;68.53;101717.94;15688341;28;20094;-60
2021/10/26 21:13:56;;;;;;;1999.90;999.90;;;;;;;13.23;68.36;101725.28;15688364;28;20529;-63
2021/10/26 21:21:29;;;;;;;1999.90;999.90;;;;;;;13.23;68.36;101711.25;15687535;28;20519;-61
2021/10/26 21:29:04;;;;;;;1999.90;999.90;;;;;;;13.20;68.52;101709.09;15685781;28;20037;-58
2021/10/26 21:36:38;;;;;;;1999.90;999.90;;;;;;;13.04;69.39;101707.88;15684348;28;20048;-61
2021/10/26 21:44:12;;;;;;;1999.90;999.90;;;;;;;13.32;68.92;101711.25;15749532;28;20055;-61
2021/10/26 21:51:45;;;;;;;1999.90;999.90;;;;;;;13.24;69.28;101709.28;15751258;28;20049;-61
2021/10/26 21:59:19;;;;;;;1999.90;999.90;;;;;;;13.27;69.18;101705.81;15756222;28;20114;-60
2021/10/26 22:06:52;;;;;;;1999.90;999.90;;;;;;;13.07;69.94;101701.63;15746030;28;20080;-60
2021/10/26 22:14:28;;;;;;;1999.90;999.90;;;;;;;13.11;69.73;101705.41;15746126;28;20417;-61
2021/10/26 22:22:00;;;;;;;1999.90;999.90;;;;;;;12.90;70.08;101715.56;15694393;22;20053;-63
2021/10/26 22:29:35;;;;;;;1999.90;999.90;;;;;;;12.86;70.37;101712.59;15719293;28;20075;-63
2021/10/26 22:37:08;;;;;;;1999.90;999.90;;;;;;;12.80;70.67;101710.25;15745783;28;20040;-63
2021/10/26 22:44:42;;;;;;;1999.90;999.90;;;;;;;12.80;70.68;101711.09;15748719;28;20075;-63
2021/10/26 22:52:15;;;;;;;1999.90;999.90;;;;;;;12.68;70.78;101714.50;15744252;28;20110;-63
2021/10/26 22:59:49;;;;;;;1999.90;999.90;;;;;;;12.89;70.30;101716.72;15745461;28;20144;-63
2021/10/26 23:07:21;;;;;;;1999.90;999.90;;;;;;;12.62;70.72;101727.03;15723335;28;20135;-63
2021/10/26 23:14:55;;;;;;;1999.90;999.90;;;;;;;12.69;70.61;101723.72;15741209;28;20048;-62
2021/10/26 23:22:28;;;;;;;1999.90;999.90;;;;;;;12.48;70.94;101715.06;15742645;28;20045;-61
2021/10/26 23:30:02;;;;;;;1999.90;999.90;;;;;;;12.50;71.31;101715.56;15741350;28;20095;-63
2021/10/26 23:37:34;;;;;;;1999.90;999.90;;;;;;;12.58;71.29;101727.97;15735661;28;20041;-62
2021/10/26 23:45:09;;;;;;;1999.90;999.90;;;;;;;12.42;71.88;101725.59;15704678;28;20135;-63
2021/10/26 23:52:42;;;;;;;1999.90;999.90;;;;;;;12.43;71.96;101727.25;15715217;28;20040;-63
